sensor_id;sensor_type;location;lat;lon;timestamp;P1;durP1;ratioP1;P2;durP2;ratioP2
16689;SDS011;8458;52.220;9.884;2023-06-26T00:01:00;6.00;;;5.60;;
16689;SDS011;8458;52.220;9.884;2023-06-26T00:03:27;5.40;;;5.10;;
16689;SDS011;8458;52.220;9.884;2023-06-26T00:05:54;5.28;;;4.88;;
16689;SDS011;8458;52.220;9.884;2023-06-26T00:08:25;6.13;;;5.82;;
16689;SDS011;8458;52.220;9.884;2023-06-26T00:10:52;5.97;;;5.50;;
16689;SDS011;8458;52.220;9.884;2023-06-26T00:13:20;5.82;;;5.43;;
16689;SDS011;8458;52.220;9.884;2023-06-26T00:15:46;5.30;;;4.93;;
16689;SDS011;8458;52.220;9.884;2023-06-26T00:18:13;5.22;;;4.97;;
16689;SDS011;8458;52.220;9.884;2023-06-26T00:20:39;5.35;;;5.05;;
16689;SDS011;8458;52.220;9.884;2023-06-26T00:23:06;4.88;;;4.50;;
16689;SDS011;8458;52.220;9.884;2023-06-26T00:25:32;5.18;;;4.97;;
16689;SDS011;8458;52.220;9.884;2023-06-26T00:27:59;5.50;;;4.97;;
16689;SDS011;8458;52.220;9.884;2023-06-26T00:30:27;5.28;;;4.97;;
16689;SDS011;8458;52.220;9.884;2023-06-26T00:32:54;5.60;;;5.30;;
16689;SDS011;8458;52.220;9.884;2023-06-26T00:35:20;5.28;;;5.05;;
16689;SDS011;8458;52.220;9.884;2023-06-26T00:37:47;5.75;;;5.45;;
16689;SDS011;8458;52.220;9.884;2023-06-26T00:40:14;5.90;;;5.50;;
16689;SDS011;8458;52.220;9.884;2023-06-26T00:42:41;6.22;;;5.90;;
16689;SDS011;8458;52.220;9.884;2023-06-26T00:45:07;5.72;;;5.43;;
16689;SDS011;8458;52.220;9.884;2023-06-26T00:47:35;5.63;;;5.37;;
16689;SDS011;8458;52.220;9.884;2023-06-26T00:50:03;6.53;;;6.13;;
16689;SDS011;8458;52.220;9.884;2023-06-26T00:52:30;5.43;;;5.13;;
16689;SDS011;8458;52.220;9.884;2023-06-26T00:54:57;5.77;;;5.47;;
16689;SDS011;8458;52.220;9.884;2023-06-26T00:57:24;6.10;;;5.70;;
16689;SDS011;8458;52.220;9.884;2023-06-26T00:59:51;5.53;;;5.20;;
16689;SDS011;8458;52.220;9.884;2023-06-26T01:02:17;5.30;;;5.00;;
16689;SDS011;8458;52.220;9.884;2023-06-26T01:04:46;5.25;;;4.70;;
16689;SDS011;8458;52.220;9.884;2023-06-26T01:07:13;5.20;;;4.80;;
16689;SDS011;8458;52.220;9.884;2023-06-26T01:09:41;4.57;;;4.38;;
16689;SDS011;8458;52.220;9.884;2023-06-26T01:12:08;4.70;;;4.50;;
16689;SDS011;8458;52.220;9.884;2023-06-26T01:14:35;4.40;;;4.13;;
16689;SDS011;8458;52.220;9.884;2023-06-26T01:17:02;4.90;;;4.70;;
16689;SDS011;8458;52.220;9.884;2023-06-26T01:19:30;5.50;;;5.20;;
16689;SDS011;8458;52.220;9.884;2023-06-26T01:22:02;4.97;;;4.77;;
16689;SDS011;8458;52.220;9.884;2023-06-26T01:24:42;5.60;;;5.30;;
16689;SDS011;8458;52.220;9.884;2023-06-26T01:27:18;5.50;;;5.20;;
16689;SDS011;8458;52.220;9.884;2023-06-26T01:29:47;4.50;;;4.10;;
16689;SDS011;8458;52.220;9.884;2023-06-26T01:32:15;4.80;;;4.50;;
16689;SDS011;8458;52.220;9.884;2023-06-26T01:34:42;4.80;;;4.60;;
16689;SDS011;8458;52.220;9.884;2023-06-26T01:37:10;5.10;;;4.73;;
16689;SDS011;8458;52.220;9.884;2023-06-26T01:39:37;4.60;;;4.40;;
16689;SDS011;8458;52.220;9.884;2023-06-26T01:42:04;4.67;;;4.47;;
16689;SDS011;8458;52.220;9.884;2023-06-26T01:44:33;5.23;;;4.93;;
16689;SDS011;8458;52.220;9.884;2023-06-26T01:47:03;5.17;;;4.70;;
16689;SDS011;8458;52.220;9.884;2023-06-26T01:49:33;5.00;;;4.67;;
16689;SDS011;8458;52.220;9.884;2023-06-26T01:52:08;4.77;;;4.40;;
16689;SDS011;8458;52.220;9.884;2023-06-26T01:54:42;4.50;;;4.20;;
16689;SDS011;8458;52.220;9.884;2023-06-26T01:57:15;4.23;;;3.93;;
16689;SDS011;8458;52.220;9.884;2023-06-26T01:59:45;4.73;;;4.50;;
16689;SDS011;8458;52.220;9.884;2023-06-26T02:02:13;4.77;;;4.47;;
16689;SDS011;8458;52.220;9.884;2023-06-26T02:04:40;3.80;;;3.60;;
16689;SDS011;8458;52.220;9.884;2023-06-26T02:07:07;4.03;;;3.73;;
16689;SDS011;8458;52.220;9.884;2023-06-26T02:09:35;4.40;;;4.00;;
16689;SDS011;8458;52.220;9.884;2023-06-26T02:12:01;4.27;;;4.03;;
16689;SDS011;8458;52.220;9.884;2023-06-26T02:14:28;4.33;;;4.03;;
16689;SDS011;8458;52.220;9.884;2023-06-26T02:16:55;4.50;;;4.20;;
16689;SDS011;8458;52.220;9.884;2023-06-26T02:19:22;4.43;;;4.13;;
16689;SDS011;8458;52.220;9.884;2023-06-26T02:21:50;5.07;;;4.77;;
16689;SDS011;8458;52.220;9.884;2023-06-26T02:24:16;4.97;;;4.53;;
16689;SDS011;8458;52.220;9.884;2023-06-26T02:26:42;4.90;;;4.50;;
16689;SDS011;8458;52.220;9.884;2023-06-26T02:29:10;4.40;;;4.10;;
16689;SDS011;8458;52.220;9.884;2023-06-26T02:31:37;5.20;;;4.87;;
16689;SDS011;8458;52.220;9.884;2023-06-26T02:34:05;5.13;;;4.73;;
16689;SDS011;8458;52.220;9.884;2023-06-26T02:36:32;4.53;;;4.33;;
16689;SDS011;8458;52.220;9.884;2023-06-26T02:38:58;5.20;;;4.90;;
16689;SDS011;8458;52.220;9.884;2023-06-26T02:41:25;4.73;;;4.43;;
16689;SDS011;8458;52.220;9.884;2023-06-26T02:43:52;4.40;;;4.20;;
16689;SDS011;8458;52.220;9.884;2023-06-26T02:46:18;4.30;;;4.10;;
16689;SDS011;8458;52.220;9.884;2023-06-26T02:48:44;5.07;;;4.77;;
16689;SDS011;8458;52.220;9.884;2023-06-26T02:51:12;4.87;;;4.57;;
16689;SDS011;8458;52.220;9.884;2023-06-26T02:53:39;4.10;;;3.80;;
16689;SDS011;8458;52.220;9.884;2023-06-26T02:56:05;4.10;;;3.63;;
16689;SDS011;8458;52.220;9.884;2023-06-26T02:58:31;10.73;;;3.57;;
16689;SDS011;8458;52.220;9.884;2023-06-26T03:00:58;4.10;;;3.70;;
16689;SDS011;8458;52.220;9.884;2023-06-26T03:03:24;4.23;;;3.83;;
16689;SDS011;8458;52.220;9.884;2023-06-26T03:05:51;4.47;;;4.20;;
16689;SDS011;8458;52.220;9.884;2023-06-26T03:08:19;4.40;;;4.10;;
16689;SDS011;8458;52.220;9.884;2023-06-26T03:10:45;5.03;;;4.53;;
16689;SDS011;8458;52.220;9.884;2023-06-26T03:13:12;5.43;;;5.03;;
16689;SDS011;8458;52.220;9.884;2023-06-26T03:15:38;4.80;;;4.50;;
16689;SDS011;8458;52.220;9.884;2023-06-26T03:18:05;4.93;;;4.70;;
16689;SDS011;8458;52.220;9.884;2023-06-26T03:20:31;4.83;;;4.53;;
16689;SDS011;8458;52.220;9.884;2023-06-26T03:22:58;4.83;;;4.47;;
16689;SDS011;8458;52.220;9.884;2023-06-26T03:25:25;5.23;;;4.93;;
16689;SDS011;8458;52.220;9.884;2023-06-26T03:27:52;4.83;;;4.53;;
16689;SDS011;8458;52.220;9.884;2023-06-26T03:30:19;4.70;;;4.40;;
16689;SDS011;8458;52.220;9.884;2023-06-26T03:32:45;4.53;;;4.17;;
16689;SDS011;8458;52.220;9.884;2023-06-26T03:35:12;5.30;;;4.10;;
16689;SDS011;8458;52.220;9.884;2023-06-26T03:37:38;4.10;;;3.73;;
16689;SDS011;8458;52.220;9.884;2023-06-26T03:40:05;4.33;;;3.87;;
16689;SDS011;8458;52.220;9.884;2023-06-26T03:42:34;4.20;;;3.80;;
16689;SDS011;8458;52.220;9.884;2023-06-26T03:45:01;4.13;;;3.83;;
16689;SDS011;8458;52.220;9.884;2023-06-26T03:47:27;3.83;;;3.53;;
16689;SDS011;8458;52.220;9.884;2023-06-26T03:49:54;3.10;;;3.00;;
16689;SDS011;8458;52.220;9.884;2023-06-26T03:52:20;3.47;;;3.27;;
16689;SDS011;8458;52.220;9.884;2023-06-26T03:54:46;3.73;;;3.53;;
16689;SDS011;8458;52.220;9.884;2023-06-26T03:57:13;4.27;;;3.93;;
16689;SDS011;8458;52.220;9.884;2023-06-26T03:59:41;4.33;;;4.00;;
16689;SDS011;8458;52.220;9.884;2023-06-26T04:02:08;4.00;;;3.70;;
16689;SDS011;8458;52.220;9.884;2023-06-26T04:04:34;4.10;;;3.83;;
16689;SDS011;8458;52.220;9.884;2023-06-26T04:07:01;4.30;;;3.90;;
16689;SDS011;8458;52.220;9.884;2023-06-26T04:09:27;4.27;;;3.97;;
16689;SDS011;8458;52.220;9.884;2023-06-26T04:11:54;4.20;;;4.00;;
16689;SDS011;8458;52.220;9.884;2023-06-26T04:14:20;4.53;;;4.23;;
16689;SDS011;8458;52.220;9.884;2023-06-26T04:16:48;4.33;;;4.03;;
16689;SDS011;8458;52.220;9.884;2023-06-26T04:19:15;4.50;;;4.20;;
16689;SDS011;8458;52.220;9.884;2023-06-26T04:21:41;4.60;;;4.30;;
16689;SDS011;8458;52.220;9.884;2023-06-26T04:24:08;4.07;;;3.87;;
16689;SDS011;8458;52.220;9.884;2023-06-26T04:26:35;4.30;;;4.00;;
16689;SDS011;8458;52.220;9.884;2023-06-26T04:29:02;3.73;;;3.53;;
16689;SDS011;8458;52.220;9.884;2023-06-26T04:31:28;4.13;;;3.90;;
16689;SDS011;8458;52.220;9.884;2023-06-26T04:33:56;4.20;;;3.90;;
16689;SDS011;8458;52.220;9.884;2023-06-26T04:36:24;4.43;;;4.13;;
16689;SDS011;8458;52.220;9.884;2023-06-26T04:38:53;3.90;;;3.70;;
16689;SDS011;8458;52.220;9.884;2023-06-26T04:41:20;4.43;;;4.03;;
16689;SDS011;8458;52.220;9.884;2023-06-26T04:43:47;4.30;;;4.00;;
16689;SDS011;8458;52.220;9.884;2023-06-26T04:46:13;4.27;;;4.03;;
16689;SDS011;8458;52.220;9.884;2023-06-26T04:48:40;4.07;;;3.87;;
16689;SDS011;8458;52.220;9.884;2023-06-26T04:51:07;4.50;;;4.17;;
16689;SDS011;8458;52.220;9.884;2023-06-26T04:53:36;4.50;;;4.20;;
16689;SDS011;8458;52.220;9.884;2023-06-26T04:56:03;4.57;;;4.00;;
16689;SDS011;8458;52.220;9.884;2023-06-26T04:58:29;4.13;;;3.83;;
16689;SDS011;8458;52.220;9.884;2023-06-26T05:00:56;4.00;;;3.80;;
16689;SDS011;8458;52.220;9.884;2023-06-26T05:03:23;4.30;;;4.00;;
16689;SDS011;8458;52.220;9.884;2023-06-26T05:05:50;4.13;;;3.93;;
16689;SDS011;8458;52.220;9.884;2023-06-26T05:08:21;4.10;;;3.90;;
16689;SDS011;8458;52.220;9.884;2023-06-26T05:10:48;4.03;;;3.73;;
16689;SDS011;8458;52.220;9.884;2023-06-26T05:13:15;4.47;;;4.17;;
16689;SDS011;8458;52.220;9.884;2023-06-26T05:15:42;4.30;;;4.00;;
16689;SDS011;8458;52.220;9.884;2023-06-26T05:18:09;4.27;;;4.07;;
16689;SDS011;8458;52.220;9.884;2023-06-26T05:20:36;4.30;;;4.05;;
16689;SDS011;8458;52.220;9.884;2023-06-26T05:23:04;4.10;;;3.87;;
16689;SDS011;8458;52.220;9.884;2023-06-26T05:25:32;3.93;;;3.73;;
16689;SDS011;8458;52.220;9.884;2023-06-26T05:28:00;4.53;;;4.32;;
16689;SDS011;8458;52.220;9.884;2023-06-26T05:30:27;3.77;;;3.57;;
16689;SDS011;8458;52.220;9.884;2023-06-26T05:32:56;4.60;;;4.40;;
16689;SDS011;8458;52.220;9.884;2023-06-26T05:35:25;4.05;;;3.85;;
16689;SDS011;8458;52.220;9.884;2023-06-26T05:37:54;4.17;;;3.97;;
16689;SDS011;8458;52.220;9.884;2023-06-26T05:40:22;4.00;;;3.80;;
16689;SDS011;8458;52.220;9.884;2023-06-26T05:42:51;4.00;;;3.80;;
16689;SDS011;8458;52.220;9.884;2023-06-26T05:45:18;3.80;;;3.60;;
16689;SDS011;8458;52.220;9.884;2023-06-26T05:47:44;4.07;;;3.77;;
16689;SDS011;8458;52.220;9.884;2023-06-26T05:50:12;3.77;;;3.57;;
16689;SDS011;8458;52.220;9.884;2023-06-26T05:52:39;3.87;;;3.67;;
16689;SDS011;8458;52.220;9.884;2023-06-26T05:55:06;4.43;;;4.13;;
16689;SDS011;8458;52.220;9.884;2023-06-26T05:57:33;4.70;;;4.40;;
16689;SDS011;8458;52.220;9.884;2023-06-26T06:00:04;4.10;;;3.90;;
16689;SDS011;8458;52.220;9.884;2023-06-26T06:02:35;3.80;;;3.60;;
16689;SDS011;8458;52.220;9.884;2023-06-26T06:05:02;4.40;;;4.20;;
16689;SDS011;8458;52.220;9.884;2023-06-26T06:07:29;3.83;;;3.60;;
16689;SDS011;8458;52.220;9.884;2023-06-26T06:09:57;3.75;;;3.55;;
16689;SDS011;8458;52.220;9.884;2023-06-26T06:12:23;4.00;;;3.80;;
16689;SDS011;8458;52.220;9.884;2023-06-26T06:14:50;4.15;;;3.95;;
16689;SDS011;8458;52.220;9.884;2023-06-26T06:17:18;4.00;;;3.80;;
16689;SDS011;8458;52.220;9.884;2023-06-26T06:19:45;4.10;;;3.90;;
16689;SDS011;8458;52.220;9.884;2023-06-26T06:22:11;7.00;;;4.20;;
16689;SDS011;8458;52.220;9.884;2023-06-26T06:24:38;3.83;;;3.63;;
16689;SDS011;8458;52.220;9.884;2023-06-26T06:27:05;3.88;;;3.67;;
16689;SDS011;8458;52.220;9.884;2023-06-26T06:29:31;3.88;;;3.67;;
16689;SDS011;8458;52.220;9.884;2023-06-26T06:31:58;3.65;;;3.45;;
16689;SDS011;8458;52.220;9.884;2023-06-26T06:34:25;3.88;;;3.67;;
16689;SDS011;8458;52.220;9.884;2023-06-26T06:36:52;3.95;;;3.75;;
16689;SDS011;8458;52.220;9.884;2023-06-26T06:39:18;4.10;;;3.80;;
16689;SDS011;8458;52.220;9.884;2023-06-26T06:41:45;4.20;;;4.00;;
16689;SDS011;8458;52.220;9.884;2023-06-26T06:44:12;4.15;;;3.95;;
16689;SDS011;8458;52.220;9.884;2023-06-26T06:46:39;4.05;;;3.85;;
16689;SDS011;8458;52.220;9.884;2023-06-26T06:49:05;4.65;;;4.35;;
16689;SDS011;8458;52.220;9.884;2023-06-26T06:51:33;3.95;;;3.75;;
16689;SDS011;8458;52.220;9.884;2023-06-26T06:54:00;4.05;;;3.80;;
16689;SDS011;8458;52.220;9.884;2023-06-26T06:56:26;4.57;;;4.30;;
16689;SDS011;8458;52.220;9.884;2023-06-26T06:58:53;3.97;;;3.78;;
16689;SDS011;8458;52.220;9.884;2023-06-26T07:01:19;4.28;;;4.03;;
16689;SDS011;8458;52.220;9.884;2023-06-26T07:03:46;4.47;;;4.20;;
16689;SDS011;8458;52.220;9.884;2023-06-26T07:06:12;4.20;;;4.00;;
16689;SDS011;8458;52.220;9.884;2023-06-26T07:08:40;4.35;;;4.15;;
16689;SDS011;8458;52.220;9.884;2023-06-26T07:11:06;4.20;;;4.00;;
16689;SDS011;8458;52.220;9.884;2023-06-26T07:13:33;4.80;;;4.50;;
16689;SDS011;8458;52.220;9.884;2023-06-26T07:16:00;4.53;;;4.18;;
16689;SDS011;8458;52.220;9.884;2023-06-26T07:18:26;5.05;;;4.60;;
16689;SDS011;8458;52.220;9.884;2023-06-26T07:20:53;4.40;;;4.10;;
16689;SDS011;8458;52.220;9.884;2023-06-26T07:23:19;4.38;;;4.18;;
16689;SDS011;8458;52.220;9.884;2023-06-26T07:25:47;4.28;;;4.07;;
16689;SDS011;8458;52.220;9.884;2023-06-26T07:28:14;4.07;;;3.88;;
16689;SDS011;8458;52.220;9.884;2023-06-26T07:30:40;4.35;;;4.15;;
16689;SDS011;8458;52.220;9.884;2023-06-26T07:33:07;4.30;;;4.10;;
16689;SDS011;8458;52.220;9.884;2023-06-26T07:35:33;4.32;;;4.13;;
16689;SDS011;8458;52.220;9.884;2023-06-26T07:37:59;4.47;;;4.20;;
16689;SDS011;8458;52.220;9.884;2023-06-26T07:40:26;3.92;;;3.72;;
16689;SDS011;8458;52.220;9.884;2023-06-26T07:42:54;4.70;;;4.40;;
16689;SDS011;8458;52.220;9.884;2023-06-26T07:45:22;4.32;;;4.13;;
16689;SDS011;8458;52.220;9.884;2023-06-26T07:47:49;4.50;;;4.20;;
16689;SDS011;8458;52.220;9.884;2023-06-26T07:50:15;4.32;;;4.13;;
16689;SDS011;8458;52.220;9.884;2023-06-26T07:52:46;4.85;;;4.55;;
16689;SDS011;8458;52.220;9.884;2023-06-26T07:55:12;3.88;;;3.67;;
16689;SDS011;8458;52.220;9.884;2023-06-26T07:57:39;4.50;;;4.20;;
16689;SDS011;8458;52.220;9.884;2023-06-26T08:00:07;4.80;;;4.40;;
16689;SDS011;8458;52.220;9.884;2023-06-26T08:02:35;4.70;;;4.40;;
16689;SDS011;8458;52.220;9.884;2023-06-26T08:05:01;4.65;;;4.35;;
16689;SDS011;8458;52.220;9.884;2023-06-26T08:07:28;4.65;;;4.28;;
16689;SDS011;8458;52.220;9.884;2023-06-26T08:09:54;4.40;;;4.20;;
16689;SDS011;8458;52.220;9.884;2023-06-26T08:12:21;4.47;;;4.28;;
16689;SDS011;8458;52.220;9.884;2023-06-26T08:14:47;4.93;;;4.63;;
16689;SDS011;8458;52.220;9.884;2023-06-26T08:17:15;4.10;;;3.90;;
16689;SDS011;8458;52.220;9.884;2023-06-26T08:19:41;4.63;;;4.38;;
16689;SDS011;8458;52.220;9.884;2023-06-26T08:22:08;5.07;;;4.68;;
16689;SDS011;8458;52.220;9.884;2023-06-26T08:24:35;4.43;;;4.10;;
16689;SDS011;8458;52.220;9.884;2023-06-26T08:27:02;5.07;;;4.70;;
16689;SDS011;8458;52.220;9.884;2023-06-26T08:29:29;4.28;;;4.07;;
16689;SDS011;8458;52.220;9.884;2023-06-26T08:31:55;4.85;;;4.65;;
16689;SDS011;8458;52.220;9.884;2023-06-26T08:34:23;4.60;;;4.40;;
16689;SDS011;8458;52.220;9.884;2023-06-26T08:36:50;4.63;;;4.22;;
16689;SDS011;8458;52.220;9.884;2023-06-26T08:39:17;5.05;;;4.85;;
16689;SDS011;8458;52.220;9.884;2023-06-26T08:41:43;5.20;;;4.90;;
16689;SDS011;8458;52.220;9.884;2023-06-26T08:44:10;5.05;;;4.75;;
16689;SDS011;8458;52.220;9.884;2023-06-26T08:46:37;4.45;;;4.15;;
16689;SDS011;8458;52.220;9.884;2023-06-26T08:49:04;5.03;;;4.82;;
16689;SDS011;8458;52.220;9.884;2023-06-26T08:51:38;4.85;;;4.55;;
16689;SDS011;8458;52.220;9.884;2023-06-26T08:54:10;4.55;;;4.35;;
16689;SDS011;8458;52.220;9.884;2023-06-26T08:56:41;5.05;;;4.75;;
16689;SDS011;8458;52.220;9.884;2023-06-26T08:59:10;5.03;;;4.82;;
16689;SDS011;8458;52.220;9.884;2023-06-26T09:01:37;4.97;;;4.78;;
16689;SDS011;8458;52.220;9.884;2023-06-26T09:04:04;5.15;;;4.95;;
16689;SDS011;8458;52.220;9.884;2023-06-26T09:06:31;5.45;;;5.15;;
16689;SDS011;8458;52.220;9.884;2023-06-26T09:08:59;5.40;;;5.10;;
16689;SDS011;8458;52.220;9.884;2023-06-26T09:11:26;5.22;;;5.03;;
16689;SDS011;8458;52.220;9.884;2023-06-26T09:13:52;5.50;;;5.20;;
16689;SDS011;8458;52.220;9.884;2023-06-26T09:16:23;5.35;;;5.00;;
16689;SDS011;8458;52.220;9.884;2023-06-26T09:18:52;9.80;;;5.35;;
16689;SDS011;8458;52.220;9.884;2023-06-26T09:21:19;5.90;;;5.60;;
16689;SDS011;8458;52.220;9.884;2023-06-26T09:23:45;6.50;;;6.10;;
16689;SDS011;8458;52.220;9.884;2023-06-26T09:26:14;6.43;;;6.13;;
16689;SDS011;8458;52.220;9.884;2023-06-26T09:28:41;6.55;;;6.20;;
16689;SDS011;8458;52.220;9.884;2023-06-26T09:31:09;6.13;;;5.82;;
16689;SDS011;8458;52.220;9.884;2023-06-26T09:33:36;6.07;;;5.78;;
16689;SDS011;8458;52.220;9.884;2023-06-26T09:36:05;6.93;;;6.60;;
16689;SDS011;8458;52.220;9.884;2023-06-26T09:38:32;9.52;;;5.93;;
16689;SDS011;8458;52.220;9.884;2023-06-26T09:41:00;6.85;;;6.40;;
16689;SDS011;8458;52.220;9.884;2023-06-26T09:43:28;6.47;;;6.13;;
16689;SDS011;8458;52.220;9.884;2023-06-26T09:45:56;6.15;;;5.85;;
16689;SDS011;8458;52.220;9.884;2023-06-26T09:48:23;6.65;;;6.18;;
16689;SDS011;8458;52.220;9.884;2023-06-26T09:50:50;6.50;;;6.00;;
16689;SDS011;8458;52.220;9.884;2023-06-26T09:53:16;5.93;;;5.53;;
16689;SDS011;8458;52.220;9.884;2023-06-26T09:55:43;6.47;;;6.03;;
16689;SDS011;8458;52.220;9.884;2023-06-26T09:58:11;5.57;;;5.28;;
16689;SDS011;8458;52.220;9.884;2023-06-26T10:00:41;6.22;;;5.78;;
16689;SDS011;8458;52.220;9.884;2023-06-26T10:03:09;7.45;;;6.95;;
16689;SDS011;8458;52.220;9.884;2023-06-26T10:05:36;5.47;;;5.28;;
16689;SDS011;8458;52.220;9.884;2023-06-26T10:08:04;5.60;;;5.20;;
16689;SDS011;8458;52.220;9.884;2023-06-26T10:10:32;5.40;;;4.97;;
16689;SDS011;8458;52.220;9.884;2023-06-26T10:13:03;5.20;;;4.90;;
16689;SDS011;8458;52.220;9.884;2023-06-26T10:15:37;5.47;;;5.10;;
16689;SDS011;8458;52.220;9.884;2023-06-26T10:18:10;6.20;;;5.80;;
16689;SDS011;8458;52.220;9.884;2023-06-26T10:20:38;5.75;;;5.45;;
16689;SDS011;8458;52.220;9.884;2023-06-26T10:23:06;6.57;;;6.10;;
16689;SDS011;8458;52.220;9.884;2023-06-26T10:25:34;6.70;;;6.30;;
16689;SDS011;8458;52.220;9.884;2023-06-26T10:28:05;7.28;;;6.82;;
16689;SDS011;8458;52.220;9.884;2023-06-26T10:30:35;7.45;;;7.03;;
16689;SDS011;8458;52.220;9.884;2023-06-26T10:33:06;7.38;;;6.88;;
16689;SDS011;8458;52.220;9.884;2023-06-26T10:35:40;7.45;;;7.05;;
16689;SDS011;8458;52.220;9.884;2023-06-26T10:38:08;8.02;;;7.55;;
16689;SDS011;8458;52.220;9.884;2023-06-26T10:40:41;7.97;;;7.45;;
16689;SDS011;8458;52.220;9.884;2023-06-26T10:43:10;8.18;;;7.63;;
16689;SDS011;8458;52.220;9.884;2023-06-26T10:45:43;6.93;;;6.57;;
16689;SDS011;8458;52.220;9.884;2023-06-26T10:48:12;8.40;;;7.75;;
16689;SDS011;8458;52.220;9.884;2023-06-26T10:50:40;8.85;;;8.10;;
16689;SDS011;8458;52.220;9.884;2023-06-26T10:53:07;8.60;;;8.05;;
16689;SDS011;8458;52.220;9.884;2023-06-26T10:55:35;8.82;;;8.13;;
16689;SDS011;8458;52.220;9.884;2023-06-26T10:58:01;9.00;;;8.50;;
16689;SDS011;8458;52.220;9.884;2023-06-26T11:00:28;7.88;;;7.47;;
16689;SDS011;8458;52.220;9.884;2023-06-26T11:02:54;8.20;;;7.57;;
16689;SDS011;8458;52.220;9.884;2023-06-26T11:05:26;6.60;;;6.20;;
16689;SDS011;8458;52.220;9.884;2023-06-26T11:08:02;6.53;;;6.03;;
16689;SDS011;8458;52.220;9.884;2023-06-26T11:10:33;6.40;;;6.00;;
16689;SDS011;8458;52.220;9.884;2023-06-26T11:13:14;6.95;;;6.15;;
16689;SDS011;8458;52.220;9.884;2023-06-26T11:15:43;6.18;;;5.75;;
16689;SDS011;8458;52.220;9.884;2023-06-26T11:18:10;6.20;;;5.80;;
16689;SDS011;8458;52.220;9.884;2023-06-26T11:20:39;6.57;;;6.22;;
16689;SDS011;8458;52.220;9.884;2023-06-26T11:23:06;6.32;;;5.82;;
16689;SDS011;8458;52.220;9.884;2023-06-26T11:25:35;6.18;;;5.78;;
16689;SDS011;8458;52.220;9.884;2023-06-26T11:28:02;6.75;;;6.22;;
16689;SDS011;8458;52.220;9.884;2023-06-26T11:30:29;7.45;;;6.93;;
16689;SDS011;8458;52.220;9.884;2023-06-26T11:33:02;7.05;;;6.45;;
16689;SDS011;8458;52.220;9.884;2023-06-26T11:35:30;8.15;;;7.22;;
16689;SDS011;8458;52.220;9.884;2023-06-26T11:37:58;6.90;;;6.40;;
16689;SDS011;8458;52.220;9.884;2023-06-26T11:40:30;6.65;;;6.25;;
16689;SDS011;8458;52.220;9.884;2023-06-26T11:42:57;6.35;;;5.95;;
16689;SDS011;8458;52.220;9.884;2023-06-26T11:45:24;6.68;;;6.22;;
16689;SDS011;8458;52.220;9.884;2023-06-26T11:47:51;7.60;;;7.10;;
16689;SDS011;8458;52.220;9.884;2023-06-26T11:50:18;7.53;;;6.93;;
16689;SDS011;8458;52.220;9.884;2023-06-26T11:52:44;6.75;;;6.35;;
16689;SDS011;8458;52.220;9.884;2023-06-26T11:55:13;7.32;;;6.75;;
16689;SDS011;8458;52.220;9.884;2023-06-26T11:57:39;6.82;;;6.35;;
16689;SDS011;8458;52.220;9.884;2023-06-26T12:00:12;7.18;;;6.68;;
16689;SDS011;8458;52.220;9.884;2023-06-26T12:02:40;7.25;;;6.78;;
16689;SDS011;8458;52.220;9.884;2023-06-26T12:05:07;6.88;;;6.47;;
16689;SDS011;8458;52.220;9.884;2023-06-26T12:07:35;7.20;;;6.65;;
16689;SDS011;8458;52.220;9.884;2023-06-26T12:10:02;6.00;;;5.60;;
16689;SDS011;8458;52.220;9.884;2023-06-26T12:12:34;6.90;;;6.30;;
16689;SDS011;8458;52.220;9.884;2023-06-26T12:15:00;6.50;;;6.10;;
16689;SDS011;8458;52.220;9.884;2023-06-26T12:17:27;7.30;;;6.78;;
16689;SDS011;8458;52.220;9.884;2023-06-26T12:19:54;6.97;;;6.57;;
16689;SDS011;8458;52.220;9.884;2023-06-26T12:22:20;7.40;;;6.95;;
16689;SDS011;8458;52.220;9.884;2023-06-26T12:24:47;6.20;;;5.80;;
16689;SDS011;8458;52.220;9.884;2023-06-26T12:27:15;6.43;;;5.93;;
16689;SDS011;8458;52.220;9.884;2023-06-26T12:29:49;4.57;;;4.28;;
16689;SDS011;8458;52.220;9.884;2023-06-26T12:32:17;4.32;;;3.90;;
16689;SDS011;8458;52.220;9.884;2023-06-26T12:34:46;4.07;;;3.40;;
16689;SDS011;8458;52.220;9.884;2023-06-26T12:37:14;3.75;;;3.45;;
16689;SDS011;8458;52.220;9.884;2023-06-26T12:39:45;3.30;;;3.08;;
16689;SDS011;8458;52.220;9.884;2023-06-26T12:42:13;3.33;;;2.75;;
16689;SDS011;8458;52.220;9.884;2023-06-26T12:44:40;2.90;;;2.70;;
16689;SDS011;8458;52.220;9.884;2023-06-26T12:47:08;2.67;;;2.47;;
16689;SDS011;8458;52.220;9.884;2023-06-26T12:49:35;3.25;;;2.72;;
16689;SDS011;8458;52.220;9.884;2023-06-26T12:52:04;3.03;;;2.70;;
16689;SDS011;8458;52.220;9.884;2023-06-26T12:54:32;3.58;;;3.30;;
16689;SDS011;8458;52.220;9.884;2023-06-26T12:56:59;3.25;;;3.05;;
16689;SDS011;8458;52.220;9.884;2023-06-26T12:59:26;3.30;;;3.10;;
16689;SDS011;8458;52.220;9.884;2023-06-26T13:01:52;2.85;;;2.65;;
16689;SDS011;8458;52.220;9.884;2023-06-26T13:04:21;3.13;;;2.80;;
16689;SDS011;8458;52.220;9.884;2023-06-26T13:06:47;3.30;;;3.10;;
16689;SDS011;8458;52.220;9.884;2023-06-26T13:09:14;2.80;;;2.50;;
16689;SDS011;8458;52.220;9.884;2023-06-26T13:11:40;2.88;;;2.58;;
16689;SDS011;8458;52.220;9.884;2023-06-26T13:14:07;2.63;;;2.50;;
16689;SDS011;8458;52.220;9.884;2023-06-26T13:16:33;2.90;;;2.67;;
16689;SDS011;8458;52.220;9.884;2023-06-26T13:19:00;2.70;;;2.50;;
16689;SDS011;8458;52.220;9.884;2023-06-26T13:21:28;2.47;;;2.25;;
16689;SDS011;8458;52.220;9.884;2023-06-26T13:23:55;2.05;;;1.85;;
16689;SDS011;8458;52.220;9.884;2023-06-26T13:26:22;1.88;;;1.65;;
16689;SDS011;8458;52.220;9.884;2023-06-26T13:28:50;3.00;;;1.65;;
16689;SDS011;8458;52.220;9.884;2023-06-26T13:31:17;1.80;;;1.70;;
16689;SDS011;8458;52.220;9.884;2023-06-26T13:33:44;1.60;;;1.50;;
16689;SDS011;8458;52.220;9.884;2023-06-26T13:36:11;1.90;;;1.80;;
16689;SDS011;8458;52.220;9.884;2023-06-26T13:38:39;2.08;;;1.98;;
16689;SDS011;8458;52.220;9.884;2023-06-26T13:41:05;2.28;;;1.90;;
16689;SDS011;8458;52.220;9.884;2023-06-26T13:43:32;2.80;;;1.88;;
16689;SDS011;8458;52.220;9.884;2023-06-26T13:45:59;1.67;;;1.58;;
16689;SDS011;8458;52.220;9.884;2023-06-26T13:48:26;1.83;;;1.60;;
16689;SDS011;8458;52.220;9.884;2023-06-26T13:50:53;2.58;;;1.65;;
16689;SDS011;8458;52.220;9.884;2023-06-26T13:53:19;2.05;;;1.80;;
16689;SDS011;8458;52.220;9.884;2023-06-26T13:55:48;1.85;;;1.70;;
16689;SDS011;8458;52.220;9.884;2023-06-26T13:58:14;2.00;;;1.55;;
16689;SDS011;8458;52.220;9.884;2023-06-26T14:00:41;1.70;;;1.60;;
16689;SDS011;8458;52.220;9.884;2023-06-26T14:03:09;1.70;;;1.60;;
16689;SDS011;8458;52.220;9.884;2023-06-26T14:05:36;1.75;;;1.60;;
16689;SDS011;8458;52.220;9.884;2023-06-26T14:08:04;1.90;;;1.50;;
16689;SDS011;8458;52.220;9.884;2023-06-26T14:10:31;2.28;;;1.73;;
16689;SDS011;8458;52.220;9.884;2023-06-26T14:13:00;1.65;;;1.52;;
16689;SDS011;8458;52.220;9.884;2023-06-26T14:15:28;1.70;;;1.60;;
16689;SDS011;8458;52.220;9.884;2023-06-26T14:17:54;1.40;;;1.30;;
16689;SDS011;8458;52.220;9.884;2023-06-26T14:20:21;3.55;;;1.63;;
16689;SDS011;8458;52.220;9.884;2023-06-26T14:22:49;1.85;;;1.40;;
16689;SDS011;8458;52.220;9.884;2023-06-26T14:25:16;1.52;;;1.42;;
16689;SDS011;8458;52.220;9.884;2023-06-26T14:27:43;1.65;;;1.38;;
16689;SDS011;8458;52.220;9.884;2023-06-26T14:30:11;1.80;;;1.50;;
16689;SDS011;8458;52.220;9.884;2023-06-26T14:32:38;2.10;;;1.40;;
16689;SDS011;8458;52.220;9.884;2023-06-26T14:35:04;1.40;;;1.30;;
16689;SDS011;8458;52.220;9.884;2023-06-26T14:37:31;1.65;;;1.52;;
16689;SDS011;8458;52.220;9.884;2023-06-26T14:39:58;1.40;;;1.30;;
16689;SDS011;8458;52.220;9.884;2023-06-26T14:42:24;1.77;;;1.30;;
16689;SDS011;8458;52.220;9.884;2023-06-26T14:44:51;2.08;;;1.55;;
16689;SDS011;8458;52.220;9.884;2023-06-26T14:47:19;1.88;;;1.50;;
16689;SDS011;8458;52.220;9.884;2023-06-26T14:49:45;2.17;;;1.50;;
16689;SDS011;8458;52.220;9.884;2023-06-26T14:52:12;1.48;;;1.38;;
16689;SDS011;8458;52.220;9.884;2023-06-26T14:54:38;1.35;;;1.20;;
16689;SDS011;8458;52.220;9.884;2023-06-26T14:57:05;1.77;;;1.38;;
16689;SDS011;8458;52.220;9.884;2023-06-26T14:59:32;1.73;;;1.38;;
16689;SDS011;8458;52.220;9.884;2023-06-26T15:01:59;1.95;;;1.27;;